Time;durP1;ratioP1;P1;durP2;ratioP2;P2;SDS_P1;SDS_P2;PMS_P1;PMS_P2;Temp;Humidity;BMP_temperature;BMP_pressure;BME280_temperature;BME280_humidity;BME280_pressure;Samples;Min_cycle;Max_cycle;Signal;HPM_P1;HPM_P2
2022/10/21 00:00:58;;;;;;;25.60;22.70;;;;;;;2.25;76.42;98418.90;105482;1317;22063;-88
2022/10/21 00:03:35;;;;;;;23.70;21.30;;;;;;;2.23;76.92;98410.61;105356;1318;22188;-83
2022/10/21 00:06:03;;;;;;;24.20;21.80;;;;;;;2.23;76.86;98397.89;105000;1324;22092;-85
2022/10/21 00:08:32;;;;;;;22.80;19.40;;;;;;;2.24;77.02;98391.38;105251;1319;22080;-86
2022/10/21 00:11:02;;;;;;;18.80;17.00;;;;;;;2.29;77.15;98393.41;105689;1316;22253;-88
2022/10/21 00:13:32;;;;;;;21.60;19.30;;;;;;;2.37;77.26;98396.02;105364;1323;22115;-87
2022/10/21 00:16:06;;;;;;;19.60;17.50;;;;;;;2.46;77.23;98388.71;105655;1308;22737;-86
2022/10/21 00:18:36;;;;;;;21.30;19.00;;;;;;;2.54;77.41;98382.70;105356;1323;22124;-85
2022/10/21 00:21:12;;;;;;;22.40;20.00;;;;;;;2.58;77.46;98382.09;105697;1305;22188;-86
2022/10/21 00:23:42;;;;;;;25.40;21.80;;;;;;;2.59;77.44;98376.71;105279;1319;22988;-86
2022/10/21 00:26:11;;;;;;;24.10;20.40;;;;;;;2.61;77.68;98370.29;105302;1324;22098;-87
2022/10/21 00:28:39;;;;;;;23.20;19.00;;;;;;;2.61;77.80;98376.04;105022;1323;22132;-86
2022/10/21 00:31:09;;;;;;;24.20;19.60;;;;;;;2.64;77.84;98379.77;105663;1311;22187;-86
2022/10/21 00:33:37;;;;;;;22.90;20.50;;;;;;;2.65;77.89;98376.67;105349;1323;22195;-86
2022/10/21 00:36:07;;;;;;;24.30;21.80;;;;;;;2.66;78.04;98375.23;105348;1323;22227;-86
2022/10/21 00:38:35;;;;;;;23.30;20.90;;;;;;;2.64;77.97;98374.24;105393;1323;22225;-86
2022/10/21 00:41:03;;;;;;;23.50;21.00;;;;;;;2.63;78.16;98380.13;105703;1316;22201;-87
2022/10/21 00:43:31;;;;;;;24.80;20.70;;;;;;;2.63;78.51;98374.86;105629;1315;22994;-87
2022/10/21 00:46:05;;;;;;;32.00;21.80;;;;;;;2.67;78.24;98371.05;105359;1323;22199;-87
2022/10/21 00:48:41;;;;;;;24.50;21.90;;;;;;;2.70;77.94;98370.59;105297;1324;22943;-85
2022/10/21 00:51:13;;;;;;;25.00;22.60;;;;;;;2.73;78.39;98371.05;105353;1324;22173;-86
2022/10/21 00:53:45;;;;;;;29.10;26.10;;;;;;;2.75;78.19;98374.23;105448;1311;22166;-86
2022/10/21 00:56:23;;;;;;;31.40;28.20;;;;;;;2.71;78.07;98368.20;105424;1324;22100;-88
2022/10/21 00:58:54;;;;;;;27.40;24.80;;;;;;;2.66;78.39;98364.34;105098;1324;22131;-86
2022/10/21 01:01:22;;;;;;;27.50;24.60;;;;;;;2.65;78.45;98359.58;105662;1317;22175;-90
2022/10/21 01:03:50;;;;;;;25.00;22.60;;;;;;;2.64;78.50;98357.89;105603;1317;22160;-86
2022/10/21 01:06:20;;;;;;;24.10;21.60;;;;;;;2.68;78.62;98354.10;105396;1317;22050;-89
2022/10/21 01:08:49;;;;;;;23.50;21.20;;;;;;;2.71;78.47;98353.54;105576;1315;22654;-88
2022/10/21 01:11:20;;;;;;;24.50;22.00;;;;;;;2.73;78.17;98354.73;105640;1294;22191;-88
2022/10/21 01:14:02;;;;;;;26.30;23.70;;;;;;;2.68;78.52;98356.39;105591;1317;22082;-88
2022/10/21 01:17:26;;;;;;;31.80;27.90;;;;;;;2.61;79.59;98365.88;105620;1317;22204;-87
2022/10/21 01:20:16;;;;;;;27.70;24.70;;;;;;;2.46;79.46;98363.05;104927;1308;22625;-88
2022/10/21 01:23:06;;;;;;;29.50;24.40;;;;;;;2.43;79.30;98356.09;104683;1331;23052;-89
2022/10/21 01:26:27;;;;;;;26.30;23.50;;;;;;;2.44;78.83;98358.92;104700;1329;22271;-88
2022/10/21 01:29:14;;;;;;;28.20;25.40;;;;;;;2.40;79.04;98353.95;104205;1338;22252;-89
2022/10/21 01:31:52;;;;;;;28.30;25.70;;;;;;;2.38;79.01;98350.85;104179;1338;23029;-89
2022/10/21 01:34:54;;;;;;;25.50;23.10;;;;;;;2.36;79.14;98352.65;104563;1285;22287;31
2022/10/21 01:37:31;;;;;;;26.10;23.60;;;;;;;2.27;79.00;98357.20;105698;1306;22096;-91
2022/10/21 01:40:07;;;;;;;29.90;24.00;;;;;;;2.21;78.96;98352.08;105880;1317;22186;-91
2022/10/21 01:42:35;;;;;;;26.10;23.20;;;;;;;2.22;79.06;98341.84;105428;1323;22919;-90
2022/10/21 01:45:42;;;;;;;25.60;22.80;;;;;;;2.22;78.97;98350.83;105626;1311;22101;-86
2022/10/21 01:48:17;;;;;;;24.90;22.40;;;;;;;2.16;79.47;98342.93;104945;1322;22228;-88
2022/10/21 01:50:51;;;;;;;62.30;55.80;;;;;;;2.06;79.30;98338.66;105018;1318;22243;-89
2022/10/21 01:53:24;;;;;;;138.50;104.80;;;;;;;2.00;79.56;98333.97;104796;1316;22121;-89
2022/10/21 01:55:54;;;;;;;41.50;37.40;;;;;;;1.97;79.42;98330.83;104934;1320;23129;-91
2022/10/21 01:58:27;;;;;;;32.20;29.00;;;;;;;1.91;79.49;98323.08;104908;1325;22263;-92
2022/10/21 02:00:57;;;;;;;27.30;24.10;;;;;;;1.83;79.57;98321.20;104733;1325;22249;-89
2022/10/21 02:03:30;;;;;;;24.50;21.80;;;;;;;1.78;79.35;98319.94;104901;1324;22577;-89
2022/10/21 02:05:58;;;;;;;18.20;16.50;;;;;;;1.74;79.98;98321.27;105005;1317;22112;-86
2022/10/21 02:08:26;;;;;;;23.40;21.00;;;;;;;1.65;80.55;98323.88;105023;1331;21979;-87
2022/10/21 02:10:57;;;;;;;39.30;35.20;;;;;;;1.56;79.98;98316.17;104981;1332;22146;-86
2022/10/21 02:13:31;;;;;;;41.40;37.30;;;;;;;1.51;80.31;98316.38;104879;1332;22170;-85
2022/10/21 02:16:01;;;;;;;49.20;44.10;;;;;;;1.49;80.29;98315.71;104732;1332;22315;-86
2022/10/21 02:18:29;;;;;;;46.10;41.40;;;;;;;1.51;80.16;98312.13;104809;1332;22340;-84
2022/10/21 02:21:05;;;;;;;25.40;22.80;;;;;;;1.52;80.26;98302.54;104752;1332;22226;-86
2022/10/21 02:23:38;;;;;;;27.20;24.60;;;;;;;1.50;80.04;98292.98;104747;1332;22261;-86
2022/10/21 02:26:06;;;;;;;25.10;22.50;;;;;;;1.45;80.31;98294.34;105573;1324;22317;-85
2022/10/21 02:28:34;;;;;;;28.60;25.80;;;;;;;1.34;79.84;98297.83;105030;1320;22206;-89
2022/10/21 02:31:13;;;;;;;29.20;26.30;;;;;;;1.27;80.13;98300.35;105420;1311;22731;-91
2022/10/21 02:33:55;;;;;;;28.00;25.10;;;;;;;1.18;80.06;98315.81;105601;1308;22191;-88
2022/10/21 02:36:55;;;;;;;29.40;26.30;;;;;;;1.13;80.20;98313.18;105222;1324;22198;-88
2022/10/21 02:39:30;;;;;;;29.50;26.60;;;;;;;1.16;80.43;98313.67;105210;1308;22191;-90
2022/10/21 02:42:00;;;;;;;33.50;30.40;;;;;;;1.20;80.30;98309.48;105256;1327;22104;-91
2022/10/21 02:44:28;;;;;;;33.00;29.70;;;;;;;1.23;80.62;98297.55;105271;1327;22088;-91
2022/10/21 02:46:55;;;;;;;32.10;29.00;;;;;;;1.23;80.42;98297.23;105598;1305;22185;-91
2022/10/21 02:49:23;;;;;;;31.60;28.70;;;;;;;1.21;80.51;98298.61;105403;1317;22171;-88
2022/10/21 02:51:52;;;;;;;29.40;26.50;;;;;;;1.17;80.34;98298.26;105569;1316;22177;-89
2022/10/21 02:54:20;;;;;;;26.30;23.80;;;;;;;1.08;80.29;98308.33;104990;1327;22239;-90
2022/10/21 02:56:48;;;;;;;26.60;24.00;;;;;;;1.02;80.57;98306.95;105578;1311;22072;-90
2022/10/21 02:59:16;;;;;;;27.60;24.80;;;;;;;0.96;81.07;98301.48;105623;1316;22216;-90
2022/10/21 03:01:44;;;;;;;42.40;38.40;;;;;;;0.89;80.69;98295.52;105276;1318;22786;-89
2022/10/21 03:04:11;;;;;;;29.40;26.40;;;;;;;0.88;80.81;98296.33;105467;1303;22068;-90
2022/10/21 03:06:39;;;;;;;26.80;24.20;;;;;;;0.83;81.21;98302.19;105264;1326;22187;-88
2022/10/21 03:09:07;;;;;;;30.90;27.80;;;;;;;0.69;81.40;98302.30;105105;1321;22223;-89
2022/10/21 03:11:35;;;;;;;31.90;29.10;;;;;;;0.59;81.64;98303.95;105618;1316;22190;-89
2022/10/21 03:14:03;;;;;;;33.30;30.10;;;;;;;0.54;81.49;98306.17;105296;1326;22234;-88
2022/10/21 03:16:31;;;;;;;32.00;28.90;;;;;;;0.52;81.37;98291.64;105381;1324;22198;-88
2022/10/21 03:18:59;;;;;;;30.30;27.40;;;;;;;0.51;81.21;98283.41;105384;1324;22209;-87
2022/10/21 03:21:26;;;;;;;34.50;31.30;;;;;;;0.54;81.23;98278.59;105427;1318;22219;-86
2022/10/21 03:23:54;;;;;;;34.00;30.80;;;;;;;0.48;81.26;98272.81;105373;1327;22206;-87
2022/10/21 03:26:22;;;;;;;34.10;31.00;;;;;;;0.42;81.25;98278.98;105308;1324;22083;-88
2022/10/21 03:28:50;;;;;;;32.30;29.20;;;;;;;0.38;81.71;98279.58;105151;1321;22951;-90
2022/10/21 03:31:18;;;;;;;30.00;27.10;;;;;;;0.35;81.81;98284.02;105077;1327;22291;-91
2022/10/21 03:33:46;;;;;;;29.60;26.80;;;;;;;0.33;81.88;98283.08;105050;1326;22195;-93
2022/10/21 03:36:14;;;;;;;27.50;24.70;;;;;;;0.36;81.85;98276.38;105669;1317;22137;-85
2022/10/21 03:38:42;;;;;;;29.60;26.80;;;;;;;0.37;82.02;98267.06;105494;1317;22088;-91
2022/10/21 03:41:09;;;;;;;36.10;32.70;;;;;;;0.33;81.66;98259.82;105320;1327;22207;-88
2022/10/21 03:43:37;;;;;;;36.30;33.00;;;;;;;0.33;81.86;98258.95;105502;1327;22219;-85
2022/10/21 03:46:05;;;;;;;30.30;27.50;;;;;;;0.31;82.26;98255.44;105273;1326;22118;-86
2022/10/21 03:48:33;;;;;;;30.50;27.50;;;;;;;0.17;82.56;98258.79;105677;1324;21912;-90
2022/10/21 03:51:01;;;;;;;44.50;40.60;;;;;;;0.08;82.67;98252.80;105909;1310;22240;-87
2022/10/21 03:53:29;;;;;;;38.50;34.90;;;;;;;0.09;82.50;98247.14;105605;1327;21878;-87
2022/10/21 03:56:11;;;;;;;34.60;30.90;;;;;;;0.16;82.56;98238.45;105543;1317;22091;-85
2022/10/21 03:58:39;;;;;;;31.80;28.90;;;;;;;0.24;82.54;98234.94;105551;1318;22213;-87
2022/10/21 04:01:12;;;;;;;29.60;26.60;;;;;;;0.24;82.84;98235.64;105298;1325;22202;-89
2022/10/21 04:03:40;;;;;;;38.20;34.40;;;;;;;0.16;82.63;98236.06;105447;1318;22115;-87
2022/10/21 04:06:08;;;;;;;30.90;27.80;;;;;;;0.11;83.20;98235.96;105094;1326;22124;-87
2022/10/21 04:08:36;;;;;;;29.70;26.50;;;;;;;0.06;83.19;98241.16;105217;1327;22267;-85
2022/10/21 04:11:04;;;;;;;30.30;27.30;;;;;;;0.06;82.85;98246.41;105887;1307;21932;-84
2022/10/21 04:13:32;;;;;;;28.80;26.20;;;;;;;0.09;83.58;98249.23;105396;1327;22221;-88
2022/10/21 04:16:04;;;;;;;30.40;27.50;;;;;;;0.13;83.55;98244.33;105133;1324;22086;-88
2022/10/21 04:18:33;;;;;;;33.80;30.60;;;;;;;0.21;83.61;98241.57;105078;1327;22104;-86
2022/10/21 04:21:01;;;;;;;42.60;28.50;;;;;;;0.28;83.38;98237.04;105198;1323;22128;-86
2022/10/21 04:23:28;;;;;;;32.60;29.70;;;;;;;0.34;83.39;98234.11;104997;1321;22172;-88
2022/10/21 04:25:56;;;;;;;27.50;24.90;;;;;;;0.28;85.15;98233.91;105258;1326;22192;-90
2022/10/21 04:28:24;;;;;;;27.10;24.20;;;;;;;0.14;85.47;98228.01;105257;1324;22208;-87
2022/10/21 04:30:52;;;;;;;34.60;31.20;;;;;;;0.13;85.08;98219.55;105426;1289;23453;-90
2022/10/21 04:33:20;;;;;;;32.00;28.90;;;;;;;0.16;84.49;98214.41;105432;1323;22192;-90
2022/10/21 04:35:48;;;;;;;30.00;26.80;;;;;;;0.23;84.36;98213.63;105291;1324;22179;-90
2022/10/21 04:38:42;;;;;;;30.10;27.30;;;;;;;0.24;84.11;98214.02;105964;1314;22084;-89
2022/10/21 04:41:10;;;;;;;30.70;27.90;;;;;;;0.18;84.40;98203.83;105417;1323;22277;-88
2022/10/21 04:43:38;;;;;;;28.20;25.60;;;;;;;0.09;84.80;98194.96;105750;1314;22067;-92
2022/10/21 04:46:10;;;;;;;27.70;24.80;;;;;;;0.00;84.83;98196.63;105511;1315;22080;-90
2022/10/21 04:48:39;;;;;;;25.40;22.70;;;;;;;0.03;84.60;98197.46;105431;1323;22756;-88
2022/10/21 04:51:07;;;;;;;28.20;25.50;;;;;;;0.07;84.03;98203.44;106034;1308;22166;-89
2022/10/21 04:53:35;;;;;;;30.60;27.40;;;;;;;0.06;84.17;98204.84;105163;1324;22169;-92
2022/10/21 04:56:03;;;;;;;35.40;31.90;;;;;;;0.09;84.66;98211.81;105638;1314;22203;-89
2022/10/21 04:58:31;;;;;;;32.80;29.60;;;;;;;0.10;84.75;98212.11;105300;1323;22671;-89
2022/10/21 05:00:58;;;;;;;37.20;33.40;;;;;;;0.12;84.56;98220.54;105658;1303;22805;-88
2022/10/21 05:03:27;;;;;;;29.50;26.80;;;;;;;0.16;84.63;98222.18;105939;1314;22169;-89
2022/10/21 05:05:54;;;;;;;34.20;30.70;;;;;;;0.22;84.79;98223.45;105933;1314;22165;-88
2022/10/21 05:08:22;;;;;;;37.70;33.90;;;;;;;0.25;85.33;98222.79;105269;1324;22174;-89
2022/10/21 05:11:00;;;;;;;38.70;34.80;;;;;;;0.29;84.90;98222.68;105456;1318;22217;-88
2022/10/21 05:13:28;;;;;;;50.20;45.70;;;;;;;0.33;84.70;98219.52;105035;1324;22205;-89
2022/10/21 05:16:02;;;;;;;43.70;39.20;;;;;;;0.36;84.81;98214.54;105015;1324;22695;-90
2022/10/21 05:18:30;;;;;;;44.40;40.10;;;;;;;0.39;84.92;98205.38;105520;1311;22163;-90
2022/10/21 05:20:58;;;;;;;37.00;33.40;;;;;;;0.34;85.40;98208.10;105080;1324;22173;-91
2022/10/21 05:23:26;;;;;;;42.80;38.70;;;;;;;0.31;85.97;98212.58;105330;1324;22139;-84
2022/10/21 05:25:54;;;;;;;33.70;30.40;;;;;;;0.34;87.22;98206.02;105608;1318;22223;-86
2022/10/21 05:28:22;;;;;;;35.40;32.10;;;;;;;0.33;87.17;98201.09;105591;1324;22109;-87
2022/10/21 05:30:51;;;;;;;35.50;32.30;;;;;;;0.33;86.60;98199.11;105881;1303;22164;-86
2022/10/21 05:33:19;;;;;;;39.10;34.80;;;;;;;0.33;86.55;98198.85;105582;1308;22094;-88
2022/10/21 05:36:03;;;;;;;38.70;34.80;;;;;;;0.34;86.65;98209.08;105811;1294;22151;-90
2022/10/21 05:38:32;;;;;;;40.30;35.10;;;;;;;0.43;86.59;98215.23;105538;1318;22881;-92
2022/10/21 05:41:00;;;;;;;36.60;32.60;;;;;;;0.53;86.16;98214.84;105359;1323;22784;-90
2022/10/21 05:43:28;;;;;;;36.80;33.00;;;;;;;0.65;86.06;98216.59;105470;1312;22900;-90
2022/10/21 05:45:56;;;;;;;45.60;36.70;;;;;;;0.74;85.84;98220.10;105646;1308;22186;-91
2022/10/21 05:48:24;;;;;;;45.20;40.80;;;;;;;0.79;85.73;98217.81;105673;1308;22197;-89
2022/10/21 05:50:53;;;;;;;48.40;40.30;;;;;;;0.86;86.07;98211.90;105669;1316;22079;-90
2022/10/21 05:53:23;;;;;;;45.80;41.10;;;;;;;0.96;86.04;98199.23;105640;1305;22185;-89
2022/10/21 05:56:02;;;;;;;45.50;40.70;;;;;;;1.06;85.85;98183.13;105322;1324;22224;-87
2022/10/21 05:58:31;;;;;;;48.90;43.90;;;;;;;1.17;85.76;98171.27;105288;1324;22173;-86
2022/10/21 06:00:59;;;;;;;50.00;44.90;;;;;;;1.31;85.89;98174.73;105658;1308;22191;-87
2022/10/21 06:03:31;;;;;;;49.70;42.40;;;;;;;1.44;86.45;98203.67;105493;1312;22791;-88
2022/10/21 06:06:01;;;;;;;51.70;45.50;;;;;;;1.41;87.15;98233.14;105520;1316;22199;-84
2022/10/21 06:08:32;;;;;;;65.40;57.70;;;;;;;1.36;86.81;98243.44;105237;1324;22230;-86
2022/10/21 06:11:15;;;;;;;69.40;58.10;;;;;;;1.41;86.99;98240.30;104973;1324;22177;-84
2022/10/21 06:13:43;;;;;;;69.90;54.90;;;;;;;1.49;86.90;98241.92;104983;1324;22770;-84
2022/10/21 06:16:13;;;;;;;77.90;57.90;;;;;;;1.61;86.64;98247.58;105266;1324;22089;-83
2022/10/21 06:18:41;;;;;;;118.80;72.10;;;;;;;1.76;86.77;98246.88;105057;1324;22244;-83
2022/10/21 06:21:09;;;;;;;67.70;60.40;;;;;;;1.89;86.66;98231.89;105641;1302;22896;-84
2022/10/21 06:23:37;;;;;;;68.10;55.30;;;;;;;1.97;86.47;98237.27;105057;1324;22987;-86
2022/10/21 06:26:12;;;;;;;64.80;57.60;;;;;;;2.03;86.68;98248.98;105565;1316;22122;-89
2022/10/21 06:28:42;;;;;;;98.20;60.20;;;;;;;2.13;86.49;98247.04;105383;1323;22123;-88
2022/10/21 06:31:14;;;;;;;61.20;54.70;;;;;;;2.24;86.65;98239.52;105373;1324;22822;-87
2022/10/21 06:33:42;;;;;;;62.20;55.50;;;;;;;2.37;86.50;98238.53;105111;1317;22710;-88
2022/10/21 06:36:10;;;;;;;55.40;48.90;;;;;;;2.45;86.54;98231.12;105132;1323;22253;-91
2022/10/21 06:38:39;;;;;;;59.30;51.30;;;;;;;2.53;86.29;98222.52;105394;1324;22103;-87
2022/10/21 06:41:10;;;;;;;60.30;50.50;;;;;;;2.60;86.63;98223.16;105164;1323;22105;-87
2022/10/21 06:43:41;;;;;;;100.70;52.00;;;;;;;2.70;86.57;98225.64;105107;1317;22194;-88
2022/10/21 06:46:15;;;;;;;496.50;92.70;;;;;;;2.82;86.66;98230.45;105389;1324;22207;-86
2022/10/21 06:48:43;;;;;;;380.30;76.80;;;;;;;2.94;86.77;98235.77;105047;1319;22088;-89
2022/10/21 06:51:17;;;;;;;129.10;67.70;;;;;;;3.07;86.45;98238.02;105490;1316;22073;-86
2022/10/21 06:53:46;;;;;;;623.30;133.20;;;;;;;3.12;86.46;98248.69;105258;1324;22087;-85
2022/10/21 06:56:16;;;;;;;218.30;82.80;;;;;;;3.14;86.67;98261.14;105376;1316;22201;-84
2022/10/21 06:58:47;;;;;;;107.70;72.50;;;;;;;3.15;86.50;98262.73;105315;1324;22855;-85
2022/10/21 07:01:17;;;;;;;114.30;61.50;;;;;;;3.16;86.63;98252.21;105324;1322;22947;-87
2022/10/21 07:04:05;;;;;;;99.00;59.80;;;;;;;3.16;86.13;98250.98;105591;1317;22195;-86
2022/10/21 07:06:33;;;;;;;94.20;58.30;;;;;;;3.25;86.58;98251.50;105302;1318;22112;-86
2022/10/21 07:09:03;;;;;;;82.50;59.50;;;;;;;3.37;86.61;98248.27;105658;1315;22149;-86
2022/10/21 07:11:31;;;;;;;95.20;61.00;;;;;;;3.48;86.80;98240.98;105053;1323;22104;-86
2022/10/21 07:14:00;;;;;;;98.40;64.60;;;;;;;3.54;86.63;98238.25;105644;1316;22199;-88
2022/10/21 07:16:31;;;;;;;93.10;65.60;;;;;;;3.61;86.84;98229.66;105080;1324;22323;-90
2022/10/21 07:18:59;;;;;;;113.30;63.50;;;;;;;3.74;87.24;98219.06;105542;1307;22070;-87
2022/10/21 07:21:29;;;;;;;68.50;54.60;;;;;;;3.93;87.36;98207.05;105658;1303;22125;-86
2022/10/21 07:23:58;;;;;;;75.30;58.90;;;;;;;4.14;87.47;98203.09;105349;1324;22815;-86
2022/10/21 07:26:31;;;;;;;423.50;99.70;;;;;;;4.34;87.26;98202.66;105591;1317;22176;-85
2022/10/21 07:29:00;;;;;;;315.00;95.50;;;;;;;4.48;87.18;98198.17;105642;1314;22187;-91
2022/10/21 07:31:32;;;;;;;384.30;97.10;;;;;;;4.65;87.61;98195.77;105097;1324;22102;-87
2022/10/21 07:34:01;;;;;;;303.30;80.00;;;;;;;4.89;87.84;98197.06;105865;1281;22891;-88
2022/10/21 07:36:31;;;;;;;704.30;115.00;;;;;;;5.12;87.62;98196.44;105314;1324;22220;-86
2022/10/21 07:39:03;;;;;;;427.80;73.90;;;;;;;5.39;87.89;98192.94;105349;1324;22200;-88
2022/10/21 07:41:34;;;;;;;245.90;46.60;;;;;;;5.73;87.87;98187.34;105787;1308;22138;-86
2022/10/21 07:44:03;;;;;;;164.20;39.40;;;;;;;6.07;87.92;98186.52;105931;1317;22174;-88
2022/10/21 07:46:32;;;;;;;68.60;25.80;;;;;;;6.38;87.87;98187.09;105369;1324;22220;-87
2022/10/21 07:49:00;;;;;;;31.60;20.00;;;;;;;6.72;87.97;98183.52;105676;1317;22196;-84
2022/10/21 07:51:27;;;;;;;25.10;17.70;;;;;;;7.03;87.76;98181.49;105622;1316;22082;-85
2022/10/21 07:54:00;;;;;;;19.30;16.40;;;;;;;7.35;87.97;98180.45;105630;1301;22148;-84
2022/10/21 07:56:31;;;;;;;21.90;19.00;;;;;;;7.64;87.34;98170.46;105344;1324;22098;-82
2022/10/21 07:59:00;;;;;;;20.40;18.30;;;;;;;7.85;87.07;98160.63;105616;1317;22186;-86
2022/10/21 08:01:28;;;;;;;21.50;19.30;;;;;;;8.04;86.72;98164.20;105781;1316;22268;-88
2022/10/21 08:03:57;;;;;;;64.60;21.20;;;;;;;8.22;86.07;98157.35;105721;1316;22107;-88
2022/10/21 08:06:25;;;;;;;22.30;18.10;;;;;;;8.35;85.62;98152.83;105745;1315;22180;-87
2022/10/21 08:08:57;;;;;;;23.70;18.70;;;;;;;8.52;85.51;98154.78;105317;1322;22209;-86
2022/10/21 08:11:31;;;;;;;36.80;19.60;;;;;;;8.68;85.47;98158.61;105726;1317;22201;-87
2022/10/21 08:13:59;;;;;;;87.70;20.40;;;;;;;8.75;85.08;98152.52;105792;1298;22205;-90
2022/10/21 08:16:27;;;;;;;21.70;19.40;;;;;;;8.84;84.81;98144.40;105307;1323;22994;-86
2022/10/21 08:18:58;;;;;;;23.80;20.90;;;;;;;8.86;83.69;98135.95;105710;1317;22179;-85
2022/10/21 08:21:27;;;;;;;23.20;20.50;;;;;;;8.87;83.36;98131.80;105628;1314;22256;-84
2022/10/21 08:23:55;;;;;;;26.00;22.50;;;;;;;8.93;83.72;98124.38;105273;1321;22196;-83
2022/10/21 08:26:23;;;;;;;29.30;20.70;;;;;;;9.03;83.24;98123.00;105379;1321;22208;-83
2022/10/21 08:28:50;;;;;;;21.90;19.50;;;;;;;9.09;82.67;98128.33;104970;1324;22201;-85
2022/10/21 08:31:21;;;;;;;45.20;38.30;;;;;;;9.18;82.62;98125.08;105582;1315;22367;-84
2022/10/21 08:33:49;;;;;;;28.40;25.60;;;;;;;9.21;82.22;98116.11;105665;1316;22223;-89
2022/10/21 08:36:20;;;;;;;22.90;19.90;;;;;;;9.23;81.44;98123.09;105740;1309;22198;-85
2022/10/21 08:38:48;;;;;;;21.20;18.80;;;;;;;9.16;81.30;98124.77;105625;1315;22840;-85
2022/10/21 08:41:42;;;;;;;39.60;23.00;;;;;;;9.20;81.34;98122.53;105465;1312;22864;-89
2022/10/21 08:44:20;;;;;;;28.10;23.60;;;;;;;9.17;79.54;98115.13;104955;1324;22181;-88
2022/10/21 08:47:15;;;;;;;25.20;22.60;;;;;;;9.06;78.82;98107.73;105587;1316;22081;-87
2022/10/21 08:50:23;;;;;;;32.40;23.60;;;;;;;8.97;78.65;98100.59;105341;1323;22251;-90
2022/10/21 08:53:00;;;;;;;161.80;27.50;;;;;;;8.92;78.38;98104.30;104948;1308;22633;-89
2022/10/21 08:55:36;;;;;;;38.60;22.50;;;;;;;8.90;78.05;98102.21;105440;1286;22203;-89
2022/10/21 08:58:04;;;;;;;26.40;23.40;;;;;;;8.90;77.57;98105.75;105631;1314;22327;-85
2022/10/21 09:00:46;;;;;;;134.80;27.00;;;;;;;8.88;76.87;98102.77;105222;1324;22293;-87
2022/10/21 09:03:28;;;;;;;29.90;23.00;;;;;;;8.87;77.05;98098.67;105337;1324;22239;-83
2022/10/21 09:06:02;;;;;;;27.00;22.30;;;;;;;8.92;77.07;98103.38;105917;1296;22180;-86
2022/10/21 09:08:36;;;;;;;26.00;22.30;;;;;;;8.93;76.27;98100.48;105916;1309;22981;-84
2022/10/21 09:11:31;;;;;;;30.10;22.00;;;;;;;8.92;76.32;98093.11;105422;1323;22209;-83
2022/10/21 09:14:02;;;;;;;29.50;22.10;;;;;;;8.94;76.12;98090.89;104934;1324;22903;-88
2022/10/21 09:16:49;;;;;;;35.00;21.40;;;;;;;8.97;75.99;98085.06;105154;1324;22906;-84
2022/10/21 09:19:32;;;;;;;48.20;24.40;;;;;;;9.06;76.45;98076.96;105444;1315;22174;-86
2022/10/21 09:22:14;;;;;;;23.40;20.60;;;;;;;9.17;76.01;98074.92;105288;1323;22207;-82
2022/10/21 09:25:13;;;;;;;67.90;21.20;;;;;;;9.29;76.21;98073.94;105644;1316;22925;-87
2022/10/21 09:27:41;;;;;;;25.10;19.20;;;;;;;9.40;76.17;98075.15;105251;1319;22188;-89
2022/10/21 09:30:24;;;;;;;25.70;19.70;;;;;;;9.50;75.96;98070.79;105185;1309;22244;-89
2022/10/21 09:32:56;;;;;;;24.90;20.90;;;;;;;9.54;75.88;98068.52;105055;1324;22169;-85
2022/10/21 09:35:48;;;;;;;29.30;19.90;;;;;;;9.60;75.81;98067.08;106009;1285;22519;-85
2022/10/21 09:38:41;;;;;;;26.00;19.00;;;;;;;9.65;76.00;98058.56;105556;1311;22672;-85
2022/10/21 09:41:16;;;;;;;93.30;21.30;;;;;;;9.66;75.14;98050.70;105467;1323;22178;-83
2022/10/21 09:43:47;;;;;;;28.00;17.70;;;;;;;9.63;74.76;98051.74;105400;1317;22181;-85
2022/10/21 09:46:16;;;;;;;26.60;20.70;;;;;;;9.62;74.98;98044.06;105906;1314;22193;-85
2022/10/21 09:48:47;;;;;;;22.40;19.70;;;;;;;9.63;74.59;98044.00;105380;1323;22783;-86
2022/10/21 09:51:38;;;;;;;21.40;19.10;;;;;;;9.65;74.76;98042.27;105422;1323;22902;-84
2022/10/21 09:54:12;;;;;;;77.60;21.50;;;;;;;9.68;74.65;98034.19;105393;1323;22761;-90
2022/10/21 09:56:45;;;;;;;24.00;19.50;;;;;;;9.71;74.69;98028.51;105642;1314;22062;-85
2022/10/21 09:59:17;;;;;;;26.30;18.00;;;;;;;9.72;74.00;98028.43;105759;1308;22185;-85
2022/10/21 10:01:47;;;;;;;37.90;18.80;;;;;;;9.72;73.22;98025.70;105961;1314;22196;-91
2022/10/21 10:04:24;;;;;;;57.90;20.40;;;;;;;9.70;73.56;98016.67;105290;1324;22213;-86
2022/10/21 10:06:52;;;;;;;20.50;17.30;;;;;;;9.70;73.22;98012.09;105781;1314;159628;-89
2022/10/21 10:09:26;;;;;;;57.60;19.30;;;;;;;9.73;73.44;98007.33;105226;1323;22952;-88
2022/10/21 10:12:04;;;;;;;21.30;17.00;;;;;;;9.74;72.42;98007.73;105403;1324;22220;-87
2022/10/21 10:14:38;;;;;;;21.10;16.80;;;;;;;9.72;71.79;98005.57;105398;1316;22187;-89
2022/10/21 10:17:25;;;;;;;27.30;16.00;;;;;;;9.71;71.48;98005.37;105851;1316;22199;-90
2022/10/21 10:20:02;;;;;;;17.90;15.50;;;;;;;9.74;71.29;97996.96;105806;1315;22081;-86
2022/10/21 10:22:36;;;;;;;16.50;14.70;;;;;;;9.78;70.99;97998.11;105409;1323;23014;-88
2022/10/21 10:25:07;;;;;;;48.00;17.60;;;;;;;9.83;70.39;97992.39;105405;1318;22178;-89
2022/10/21 10:27:35;;;;;;;104.90;16.80;;;;;;;9.84;70.22;97992.16;105423;1323;22874;-87
2022/10/21 10:30:05;;;;;;;20.10;13.70;;;;;;;9.85;69.46;97993.59;105388;1324;22221;-90
2022/10/21 10:32:34;;;;;;;23.50;15.30;;;;;;;9.83;68.46;97989.58;105486;1322;22207;-91
2022/10/21 10:35:06;;;;;;;20.20;14.00;;;;;;;9.79;68.39;97985.97;105248;1324;22366;-87
2022/10/21 10:37:36;;;;;;;412.40;32.60;;;;;;;9.80;69.14;97982.74;105371;1324;22205;-85
2022/10/21 10:40:08;;;;;;;39.60;16.20;;;;;;;9.83;69.18;97979.73;105619;1308;22158;-86
2022/10/21 10:42:43;;;;;;;18.70;15.70;;;;;;;9.85;69.61;97984.33;105319;1317;23292;-87
2022/10/21 10:45:19;;;;;;;17.90;16.10;;;;;;;9.87;69.46;97976.88;105011;1325;22156;-86
2022/10/21 10:47:56;;;;;;;18.20;16.40;;;;;;;9.92;69.29;97976.91;105442;1317;22152;-87
2022/10/21 10:50:36;;;;;;;17.90;16.10;;;;;;;9.95;69.46;97974.87;105906;1309;22086;-85
2022/10/21 10:53:31;;;;;;;16.80;15.20;;;;;;;9.99;69.14;97973.84;105876;1309;22090;-85
2022/10/21 10:56:19;;;;;;;;;;;;;;;9.98;68.78;97967.60;105698;1315;22886;-85
2022/10/21 10:58:55;;;;;;;18.30;14.40;;;;;;;9.99;68.94;97963.30;105659;1322;22177;-85
2022/10/21 11:01:33;;;;;;;18.80;16.80;;;;;;;10.00;68.68;97954.94;105655;1323;22084;-86
2022/10/21 11:04:22;;;;;;;18.20;15.80;;;;;;;10.04;68.71;97954.66;106110;1300;22242;-88
2022/10/21 11:06:57;;;;;;;16.80;15.10;;;;;;;10.09;67.89;97948.70;105663;1321;22019;-89
2022/10/21 11:09:25;;;;;;;16.40;14.50;;;;;;;10.13;67.60;97939.67;106068;1304;21912;-88
2022/10/21 11:12:04;;;;;;;18.00;14.60;;;;;;;10.20;67.60;97938.48;105849;1299;21959;31
2022/10/21 11:14:33;;;;;;;16.30;14.40;;;;;;;10.28;67.21;97932.76;105229;1324;23014;-93
2022/10/21 11:17:10;;;;;;;17.90;15.30;;;;;;;10.33;67.04;97926.48;105028;1324;22144;-89
2022/10/21 11:19:50;;;;;;;19.00;15.80;;;;;;;10.41;66.99;97918.19;105109;1320;22872;-90
2022/10/21 11:22:23;;;;;;;17.40;15.60;;;;;;;10.49;66.28;97914.49;105074;1327;22906;-88
2022/10/21 11:25:21;;;;;;;21.80;14.20;;;;;;;10.56;65.68;97919.65;105247;1327;22734;-91
2022/10/21 11:28:18;;;;;;;17.40;15.00;;;;;;;10.64;65.84;97911.04;105018;1324;23002;-88
2022/10/21 11:31:16;;;;;;;21.60;15.00;;;;;;;10.69;64.82;97912.23;105071;1319;23115;-91
2022/10/21 11:33:59;;;;;;;27.30;14.40;;;;;;;10.74;65.75;97907.45;105735;1316;22220;-93
2022/10/21 11:37:01;;;;;;;27.50;15.30;;;;;;;10.78;65.26;97901.02;105327;1318;22208;-91
2022/10/21 11:39:41;;;;;;;21.40;15.70;;;;;;;10.81;65.64;97896.80;105830;1301;22950;-90
2022/10/21 11:42:24;;;;;;;28.10;18.00;;;;;;;10.85;64.90;97894.62;105761;1316;22146;-86
2022/10/21 11:45:32;;;;;;;20.30;17.80;;;;;;;10.85;64.44;97895.27;105743;1308;22881;-91